sensor_id;sensor_type;location;lat;lon;timestamp;pressure;altitude;pressure_sealevel;temperature;humidity
5296;BME280;2670;42.720;23.336;2022-12-07T00:00:45;-22608.03;;;5.71;100.00
5296;BME280;2670;42.720;23.336;2022-12-07T00:03:12;-22608.47;;;5.72;100.00
5296;BME280;2670;42.720;23.336;2022-12-07T00:05:40;-22608.03;;;5.71;100.00
5296;BME280;2670;42.720;23.336;2022-12-07T00:08:07;-22606.09;;;5.64;100.00
5296;BME280;2670;42.720;23.336;2022-12-07T00:10:33;-22607.44;;;5.69;100.00
5296;BME280;2670;42.720;23.336;2022-12-07T00:13:00;-22609.22;;;5.75;100.00
5296;BME280;2670;42.720;23.336;2022-12-07T00:15:27;-22609.66;;;5.77;100.00
5296;BME280;2670;42.720;23.336;2022-12-07T00:17:54;-22608.63;;;5.73;100.00
5296;BME280;2670;42.720;23.336;2022-12-07T00:20:21;-22606.69;;;5.66;100.00
5296;BME280;2670;42.720;23.336;2022-12-07T00:22:49;-22605.50;;;5.62;100.00
5296;BME280;2670;42.720;23.336;2022-12-07T00:25:16;-22604.44;;;5.59;100.00
5296;BME280;2670;42.720;23.336;2022-12-07T00:27:43;-22607.88;;;5.70;100.00
5296;BME280;2670;42.720;23.336;2022-12-07T00:30:10;-22610.84;;;5.81;100.00
5296;BME280;2670;42.720;23.336;2022-12-07T00:32:37;-22609.06;;;5.74;100.00
5296;BME280;2670;42.720;23.336;2022-12-07T00:35:04;-22610.56;;;5.80;100.00
5296;BME280;2670;42.720;23.336;2022-12-07T00:37:31;-22610.72;;;5.80;100.00
5296;BME280;2670;42.720;23.336;2022-12-07T00:39:59;-22610.84;;;5.81;100.00
5296;BME280;2670;42.720;23.336;2022-12-07T00:42:26;-22608.19;;;5.71;100.00
5296;BME280;2670;42.720;23.336;2022-12-07T00:44:53;-22607.72;;;5.70;100.00
5296;BME280;2670;42.720;23.336;2022-12-07T00:47:20;-22609.81;;;5.77;100.00
5296;BME280;2670;42.720;23.336;2022-12-07T00:49:46;-22610.84;;;5.81;100.00
5296;BME280;2670;42.720;23.336;2022-12-07T00:52:13;-22611.31;;;5.82;100.00
5296;BME280;2670;42.720;23.336;2022-12-07T00:54:40;-22612.50;;;5.86;100.00
5296;BME280;2670;42.720;23.336;2022-12-07T00:57:08;-22610.84;;;5.81;100.00
5296;BME280;2670;42.720;23.336;2022-12-07T00:59:35;-22611.44;;;5.83;100.00
5296;BME280;2670;42.720;23.336;2022-12-07T01:02:02;-22611.91;;;5.84;100.00
5296;BME280;2670;42.720;23.336;2022-12-07T01:04:29;-22611.00;;;5.81;100.00
5296;BME280;2670;42.720;23.336;2022-12-07T01:06:56;-22610.84;;;5.81;100.00
5296;BME280;2670;42.720;23.336;2022-12-07T01:09:22;-22608.31;;;5.72;100.00
5296;BME280;2670;42.720;23.336;2022-12-07T01:11:49;-22609.22;;;5.75;100.00
5296;BME280;2670;42.720;23.336;2022-12-07T01:14:17;-22611.59;;;5.83;100.00
5296;BME280;2670;42.720;23.336;2022-12-07T01:16:44;-22610.41;;;5.79;100.00
5296;BME280;2670;42.720;23.336;2022-12-07T01:19:11;-22612.19;;;5.85;100.00
5296;BME280;2670;42.720;23.336;2022-12-07T01:21:38;-22609.81;;;5.77;100.00
5296;BME280;2670;42.720;23.336;2022-12-07T01:24:06;-22609.81;;;5.77;100.00
5296;BME280;2670;42.720;23.336;2022-12-07T01:26:34;-22610.25;;;5.79;100.00
5296;BME280;2670;42.720;23.336;2022-12-07T01:29:01;-22608.91;;;5.74;100.00
5296;BME280;2670;42.720;23.336;2022-12-07T01:31:29;-22608.03;;;5.71;100.00
5296;BME280;2670;42.720;23.336;2022-12-07T01:33:58;-22609.06;;;5.74;100.00
5296;BME280;2670;42.720;23.336;2022-12-07T01:36:27;-22609.06;;;5.74;100.00
5296;BME280;2670;42.720;23.336;2022-12-07T01:38:56;-22609.50;;;5.76;100.00
5296;BME280;2670;42.720;23.336;2022-12-07T01:41:26;-22608.31;;;5.72;100.00
5296;BME280;2670;42.720;23.336;2022-12-07T01:44:16;-22610.25;;;5.79;100.00
5296;BME280;2670;42.720;23.336;2022-12-07T01:46:45;-22611.16;;;5.82;100.00
5296;BME280;2670;42.720;23.336;2022-12-07T01:49:17;-22608.31;;;5.72;100.00
5296;BME280;2670;42.720;23.336;2022-12-07T01:51:46;-22608.78;;;5.73;100.00
5296;BME280;2670;42.720;23.336;2022-12-07T01:54:14;-22609.50;;;5.76;100.00
5296;BME280;2670;42.720;23.336;2022-12-07T01:56:45;-22607.28;;;5.68;100.00
5296;BME280;2670;42.720;23.336;2022-12-07T01:59:16;-22607.44;;;5.69;100.00
5296;BME280;2670;42.720;23.336;2022-12-07T02:01:45;-22608.03;;;5.71;100.00
5296;BME280;2670;42.720;23.336;2022-12-07T02:04:12;-22606.84;;;5.67;100.00
5296;BME280;2670;42.720;23.336;2022-12-07T02:06:40;-22607.72;;;5.70;100.00
5296;BME280;2670;42.720;23.336;2022-12-07T02:09:08;-22608.19;;;5.71;100.00
5296;BME280;2670;42.720;23.336;2022-12-07T02:11:35;-22606.53;;;5.66;100.00
5296;BME280;2670;42.720;23.336;2022-12-07T02:14:02;-22607.28;;;5.68;100.00
5296;BME280;2670;42.720;23.336;2022-12-07T02:16:34;-22606.97;;;5.67;100.00
5296;BME280;2670;42.720;23.336;2022-12-07T02:19:33;-22606.69;;;5.66;100.00
5296;BME280;2670;42.720;23.336;2022-12-07T02:22:18;-22608.78;;;5.73;100.00
5296;BME280;2670;42.720;23.336;2022-12-07T02:24:55;-22606.53;;;5.66;100.00
5296;BME280;2670;42.720;23.336;2022-12-07T02:27:38;-22607.13;;;5.68;100.00
5296;BME280;2670;42.720;23.336;2022-12-07T02:30:09;-22608.19;;;5.71;100.00
5296;BME280;2670;42.720;23.336;2022-12-07T02:32:43;-22606.97;;;5.67;100.00
5296;BME280;2670;42.720;23.336;2022-12-07T02:35:15;-22607.88;;;5.70;100.00
5296;BME280;2670;42.720;23.336;2022-12-07T02:37:51;-22605.19;;;5.61;100.00
5296;BME280;2670;42.720;23.336;2022-12-07T02:40:24;-22604.44;;;5.59;100.00
5296;BME280;2670;42.720;23.336;2022-12-07T02:42:55;-22605.06;;;5.61;100.00
5296;BME280;2670;42.720;23.336;2022-12-07T02:45:28;-22602.53;;;5.52;100.00
5296;BME280;2670;42.720;23.336;2022-12-07T02:47:58;-22601.31;;;5.48;100.00
5296;BME280;2670;42.720;23.336;2022-12-07T02:50:26;-22602.53;;;5.52;100.00
5296;BME280;2670;42.720;23.336;2022-12-07T02:52:53;-22602.22;;;5.51;100.00
5296;BME280;2670;42.720;23.336;2022-12-07T02:55:25;-22598.94;;;5.40;100.00
5296;BME280;2670;42.720;23.336;2022-12-07T02:58:22;-22597.75;;;5.36;100.00
5296;BME280;2670;42.720;23.336;2022-12-07T03:00:58;-22595.97;;;5.30;100.00
5296;BME280;2670;42.720;23.336;2022-12-07T03:03:31;-22597.75;;;5.36;100.00
5296;BME280;2670;42.720;23.336;2022-12-07T03:06:09;-22595.66;;;5.29;100.00
5296;BME280;2670;42.720;23.336;2022-12-07T03:08:45;-22594.63;;;5.25;100.00
5296;BME280;2670;42.720;23.336;2022-12-07T03:11:18;-22595.97;;;5.30;100.00
5296;BME280;2670;42.720;23.336;2022-12-07T03:13:54;-22595.06;;;5.27;100.00
5296;BME280;2670;42.720;23.336;2022-12-07T03:16:27;-22595.81;;;5.29;100.00
5296;BME280;2670;42.720;23.336;2022-12-07T03:18:59;-22592.84;;;5.19;100.00
5296;BME280;2670;42.720;23.336;2022-12-07T03:21:31;-22590.59;;;5.11;100.00
5296;BME280;2670;42.720;23.336;2022-12-07T03:24:02;-22592.38;;;5.17;100.00
5296;BME280;2670;42.720;23.336;2022-12-07T03:26:34;-22589.56;;;5.08;100.00
5296;BME280;2670;42.720;23.336;2022-12-07T03:29:05;-22590.75;;;5.12;100.00
5296;BME280;2670;42.720;23.336;2022-12-07T03:31:37;-22590.44;;;5.11;100.00
5296;BME280;2670;42.720;23.336;2022-12-07T03:34:09;-22590.00;;;5.09;100.00
5296;BME280;2670;42.720;23.336;2022-12-07T03:36:41;-22588.81;;;5.05;100.00
5296;BME280;2670;42.720;23.336;2022-12-07T03:39:17;-22587.47;;;5.00;100.00
5296;BME280;2670;42.720;23.336;2022-12-07T03:41:47;-22588.38;;;5.04;100.00
5296;BME280;2670;42.720;23.336;2022-12-07T03:44:15;-22589.84;;;5.09;100.00
5296;BME280;2670;42.720;23.336;2022-12-07T03:46:48;-22588.50;;;5.04;100.00
5296;BME280;2670;42.720;23.336;2022-12-07T03:49:23;-22588.38;;;5.04;100.00
5296;BME280;2670;42.720;23.336;2022-12-07T03:51:55;-22588.38;;;5.04;100.00
5296;BME280;2670;42.720;23.336;2022-12-07T03:54:26;-22588.81;;;5.05;100.00
5296;BME280;2670;42.720;23.336;2022-12-07T03:56:55;-22587.16;;;4.99;100.00
5296;BME280;2670;42.720;23.336;2022-12-07T03:59:24;-22586.72;;;4.98;100.00
5296;BME280;2670;42.720;23.336;2022-12-07T04:01:55;-22588.22;;;5.03;100.00
5296;BME280;2670;42.720;23.336;2022-12-07T04:04:24;-22585.38;;;4.93;100.00
5296;BME280;2670;42.720;23.336;2022-12-07T04:06:51;-22583.88;;;4.88;100.00
5296;BME280;2670;42.720;23.336;2022-12-07T04:09:18;-22584.50;;;4.90;100.00
5296;BME280;2670;42.720;23.336;2022-12-07T04:11:44;-22583.88;;;4.88;100.00
5296;BME280;2670;42.720;23.336;2022-12-07T04:14:11;-22584.50;;;4.90;100.00
5296;BME280;2670;42.720;23.336;2022-12-07T04:16:47;-22583.28;;;4.86;100.00
5296;BME280;2670;42.720;23.336;2022-12-07T04:19:17;-22582.41;;;4.83;100.00
5296;BME280;2670;42.720;23.336;2022-12-07T04:21:44;-22582.25;;;4.83;100.00
5296;BME280;2670;42.720;23.336;2022-12-07T04:24:12;-22581.97;;;4.82;100.00
5296;BME280;2670;42.720;23.336;2022-12-07T04:26:41;-22580.75;;;4.78;100.00
5296;BME280;2670;42.720;23.336;2022-12-07T04:29:08;-22582.84;;;4.85;100.00
5296;BME280;2670;42.720;23.336;2022-12-07T04:31:35;-22582.69;;;4.84;100.00
5296;BME280;2670;42.720;23.336;2022-12-07T04:34:03;-22581.66;;;4.81;100.00
5296;BME280;2670;42.720;23.336;2022-12-07T04:36:32;-22581.97;;;4.82;100.00
5296;BME280;2670;42.720;23.336;2022-12-07T04:38:59;-22582.41;;;4.83;100.00
5296;BME280;2670;42.720;23.336;2022-12-07T04:41:26;-22585.69;;;4.94;100.00
5296;BME280;2670;42.720;23.336;2022-12-07T04:43:54;-22584.03;;;4.89;100.00
5296;BME280;2670;42.720;23.336;2022-12-07T04:46:22;-22583.59;;;4.87;100.00
5296;BME280;2670;42.720;23.336;2022-12-07T04:48:49;-22583.00;;;4.85;100.00
5296;BME280;2670;42.720;23.336;2022-12-07T04:51:19;-22579.41;;;4.73;100.00
5296;BME280;2670;42.720;23.336;2022-12-07T04:53:48;-22578.38;;;4.69;100.00
5296;BME280;2670;42.720;23.336;2022-12-07T04:56:15;-22578.09;;;4.68;100.00
5296;BME280;2670;42.720;23.336;2022-12-07T04:58:44;-22579.56;;;4.73;100.00
5296;BME280;2670;42.720;23.336;2022-12-07T05:01:11;-22576.44;;;4.63;100.00
5296;BME280;2670;42.720;23.336;2022-12-07T05:03:39;-22574.19;;;4.55;100.00
5296;BME280;2670;42.720;23.336;2022-12-07T05:06:06;-22574.66;;;4.57;100.00
5296;BME280;2670;42.720;23.336;2022-12-07T05:08:34;-22573.31;;;4.52;100.00
5296;BME280;2670;42.720;23.336;2022-12-07T05:11:03;-22574.34;;;4.56;100.00
5296;BME280;2670;42.720;23.336;2022-12-07T05:13:30;-22572.72;;;4.50;100.00
5296;BME280;2670;42.720;23.336;2022-12-07T05:15:57;-22572.56;;;4.49;100.00
5296;BME280;2670;42.720;23.336;2022-12-07T05:18:24;-22573.00;;;4.51;100.00
5296;BME280;2670;42.720;23.336;2022-12-07T05:20:51;-22573.31;;;4.52;100.00
5296;BME280;2670;42.720;23.336;2022-12-07T05:23:18;-22572.13;;;4.48;100.00
5296;BME280;2670;42.720;23.336;2022-12-07T05:25:46;-22569.13;;;4.38;100.00
5296;BME280;2670;42.720;23.336;2022-12-07T05:28:14;-22570.19;;;4.41;100.00
5296;BME280;2670;42.720;23.336;2022-12-07T05:30:41;-22570.19;;;4.41;100.00
5296;BME280;2670;42.720;23.336;2022-12-07T05:33:08;-22571.81;;;4.47;100.00
5296;BME280;2670;42.720;23.336;2022-12-07T05:35:34;-22569.28;;;4.38;100.00
5296;BME280;2670;42.720;23.336;2022-12-07T05:38:03;-22570.19;;;4.41;100.00
5296;BME280;2670;42.720;23.336;2022-12-07T05:40:29;-22569.28;;;4.38;100.00
5296;BME280;2670;42.720;23.336;2022-12-07T05:42:56;-22567.78;;;4.33;100.00
5296;BME280;2670;42.720;23.336;2022-12-07T05:45:24;-22568.97;;;4.37;100.00
5296;BME280;2670;42.720;23.336;2022-12-07T05:47:51;-22567.78;;;4.33;100.00
5296;BME280;2670;42.720;23.336;2022-12-07T05:50:18;-22570.03;;;4.41;100.00
5296;BME280;2670;42.720;23.336;2022-12-07T05:52:45;-22568.38;;;4.35;100.00
5296;BME280;2670;42.720;23.336;2022-12-07T05:55:11;-22567.34;;;4.32;100.00
5296;BME280;2670;42.720;23.336;2022-12-07T05:57:38;-22567.34;;;4.32;100.00
5296;BME280;2670;42.720;23.336;2022-12-07T06:00:26;-22569.72;;;4.40;100.00
5296;BME280;2670;42.720;23.336;2022-12-07T06:02:52;-22569.59;;;4.39;100.00
5296;BME280;2670;42.720;23.336;2022-12-07T06:05:19;-22568.97;;;4.37;100.00
5296;BME280;2670;42.720;23.336;2022-12-07T06:07:46;-22569.44;;;4.39;100.00
5296;BME280;2670;42.720;23.336;2022-12-07T06:10:12;-22568.38;;;4.35;100.00
5296;BME280;2670;42.720;23.336;2022-12-07T06:12:39;-22567.03;;;4.31;100.00
5296;BME280;2670;42.720;23.336;2022-12-07T06:15:08;-22567.78;;;4.33;100.00
5296;BME280;2670;42.720;23.336;2022-12-07T06:17:37;-22568.38;;;4.35;100.00
5296;BME280;2670;42.720;23.336;2022-12-07T06:20:05;-22572.25;;;4.48;100.00
5296;BME280;2670;42.720;23.336;2022-12-07T06:22:32;-22570.31;;;4.42;100.00
5296;BME280;2670;42.720;23.336;2022-12-07T06:24:59;-22570.63;;;4.43;100.00
5296;BME280;2670;42.720;23.336;2022-12-07T06:27:26;-22570.19;;;4.41;100.00
5296;BME280;2670;42.720;23.336;2022-12-07T06:29:53;-22570.03;;;4.41;100.00
5296;BME280;2670;42.720;23.336;2022-12-07T06:32:20;-22569.88;;;4.40;100.00
5296;BME280;2670;42.720;23.336;2022-12-07T06:34:48;-22573.00;;;4.51;100.00
5296;BME280;2670;42.720;23.336;2022-12-07T06:37:15;-22573.59;;;4.53;100.00
5296;BME280;2670;42.720;23.336;2022-12-07T06:39:42;-22572.41;;;4.49;100.00
5296;BME280;2670;42.720;23.336;2022-12-07T06:42:09;-22573.75;;;4.54;100.00
5296;BME280;2670;42.720;23.336;2022-12-07T06:44:35;-22573.75;;;4.54;100.00
5296;BME280;2670;42.720;23.336;2022-12-07T06:47:02;-22572.56;;;4.49;100.00
5296;BME280;2670;42.720;23.336;2022-12-07T06:49:29;-22571.81;;;4.47;100.00
5296;BME280;2670;42.720;23.336;2022-12-07T06:51:58;-22570.94;;;4.44;100.00
5296;BME280;2670;42.720;23.336;2022-12-07T06:54:24;-22573.91;;;4.54;100.00
5296;BME280;2670;42.720;23.336;2022-12-07T06:56:51;-22572.13;;;4.48;100.00
5296;BME280;2670;42.720;23.336;2022-12-07T06:59:18;-22573.47;;;4.53;100.00
5296;BME280;2670;42.720;23.336;2022-12-07T07:01:44;-22573.00;;;4.51;100.00
5296;BME280;2670;42.720;23.336;2022-12-07T07:04:11;-22572.84;;;4.50;100.00
5296;BME280;2670;42.720;23.336;2022-12-07T07:06:38;-22574.81;;;4.57;100.00
5296;BME280;2670;42.720;23.336;2022-12-07T07:09:06;-22575.25;;;4.59;100.00
5296;BME280;2670;42.720;23.336;2022-12-07T07:11:34;-22575.53;;;4.60;100.00
5296;BME280;2670;42.720;23.336;2022-12-07T07:14:01;-22577.78;;;4.67;100.00
5296;BME280;2670;42.720;23.336;2022-12-07T07:16:28;-22577.03;;;4.65;100.00
5296;BME280;2670;42.720;23.336;2022-12-07T07:18:56;-22580.00;;;4.75;100.00
5296;BME280;2670;42.720;23.336;2022-12-07T07:21:23;-22580.91;;;4.78;100.00
5296;BME280;2670;42.720;23.336;2022-12-07T07:23:50;-22581.97;;;4.82;100.00
5296;BME280;2670;42.720;23.336;2022-12-07T07:26:18;-22581.34;;;4.80;100.00
5296;BME280;2670;42.720;23.336;2022-12-07T07:28:45;-22581.50;;;4.80;100.00
5296;BME280;2670;42.720;23.336;2022-12-07T07:31:12;-22580.91;;;4.78;100.00
5296;BME280;2670;42.720;23.336;2022-12-07T07:33:39;-22579.28;;;4.72;100.00
5296;BME280;2670;42.720;23.336;2022-12-07T07:36:06;-22582.09;;;4.82;100.00
5296;BME280;2670;42.720;23.336;2022-12-07T07:38:33;-22580.16;;;4.75;100.00
5296;BME280;2670;42.720;23.336;2022-12-07T07:41:00;-22580.63;;;4.77;100.00
5296;BME280;2670;42.720;23.336;2022-12-07T07:43:28;-22582.84;;;4.85;100.00
5296;BME280;2670;42.720;23.336;2022-12-07T07:45:54;-22584.03;;;4.89;100.00
5296;BME280;2670;42.720;23.336;2022-12-07T07:48:21;-22586.28;;;4.96;100.00
5296;BME280;2670;42.720;23.336;2022-12-07T07:50:50;-22588.22;;;5.03;100.00
5296;BME280;2670;42.720;23.336;2022-12-07T07:53:17;-22589.41;;;5.07;100.00
5296;BME280;2670;42.720;23.336;2022-12-07T07:55:50;-22587.63;;;5.01;100.00
5296;BME280;2670;42.720;23.336;2022-12-07T07:58:17;-22590.75;;;5.12;100.00
5296;BME280;2670;42.720;23.336;2022-12-07T08:00:45;-22589.09;;;5.06;100.00
5296;BME280;2670;42.720;23.336;2022-12-07T08:03:12;-22587.47;;;5.00;100.00
5296;BME280;2670;42.720;23.336;2022-12-07T08:05:39;-22589.09;;;5.06;100.00
5296;BME280;2670;42.720;23.336;2022-12-07T08:08:06;-22589.25;;;5.07;100.00
5296;BME280;2670;42.720;23.336;2022-12-07T08:10:33;-22589.41;;;5.07;100.00
5296;BME280;2670;42.720;23.336;2022-12-07T08:13:01;-22590.44;;;5.11;100.00
5296;BME280;2670;42.720;23.336;2022-12-07T08:15:41;-22591.50;;;5.14;100.00
5296;BME280;2670;42.720;23.336;2022-12-07T08:18:09;-22594.19;;;5.23;100.00
5296;BME280;2670;42.720;23.336;2022-12-07T08:20:37;-22596.09;;;5.30;100.00
5296;BME280;2670;42.720;23.336;2022-12-07T08:23:05;-22591.94;;;5.16;100.00
5296;BME280;2670;42.720;23.336;2022-12-07T08:25:33;-22593.72;;;5.22;100.00
5296;BME280;2670;42.720;23.336;2022-12-07T08:28:00;-22591.94;;;5.16;100.00
5296;BME280;2670;42.720;23.336;2022-12-07T08:30:28;-22591.03;;;5.13;100.00
5296;BME280;2670;42.720;23.336;2022-12-07T08:32:55;-22590.75;;;5.12;100.00
5296;BME280;2670;42.720;23.336;2022-12-07T08:35:24;-22591.78;;;5.15;100.00
5296;BME280;2670;42.720;23.336;2022-12-07T08:37:51;-22592.69;;;5.18;100.00
5296;BME280;2670;42.720;23.336;2022-12-07T08:40:18;-22593.72;;;5.22;100.00
5296;BME280;2670;42.720;23.336;2022-12-07T08:42:49;-22595.06;;;5.27;100.00
5296;BME280;2670;42.720;23.336;2022-12-07T08:45:17;-22599.53;;;5.42;100.00
5296;BME280;2670;42.720;23.336;2022-12-07T08:47:48;-22598.63;;;5.39;100.00
5296;BME280;2670;42.720;23.336;2022-12-07T08:50:17;-22595.38;;;5.28;100.00
5296;BME280;2670;42.720;23.336;2022-12-07T08:52:48;-22595.38;;;5.28;100.00
5296;BME280;2670;42.720;23.336;2022-12-07T08:55:17;-22595.66;;;5.29;100.00
5296;BME280;2670;42.720;23.336;2022-12-07T08:57:44;-22594.19;;;5.23;100.00
5296;BME280;2670;42.720;23.336;2022-12-07T09:00:12;-22600.44;;;5.45;100.00
5296;BME280;2670;42.720;23.336;2022-12-07T09:02:39;-22597.44;;;5.35;100.00
5296;BME280;2670;42.720;23.336;2022-12-07T09:05:07;-22597.59;;;5.35;100.00
5296;BME280;2670;42.720;23.336;2022-12-07T09:07:35;-22597.44;;;5.35;100.00
5296;BME280;2670;42.720;23.336;2022-12-07T09:10:05;-22597.16;;;5.34;100.00
5296;BME280;2670;42.720;23.336;2022-12-07T09:12:32;-22601.91;;;5.50;100.00
5296;BME280;2670;42.720;23.336;2022-12-07T09:14:58;-22601.91;;;5.50;100.00
5296;BME280;2670;42.720;23.336;2022-12-07T09:17:26;-22600.88;;;5.46;100.00
5296;BME280;2670;42.720;23.336;2022-12-07T09:19:53;-22603.84;;;5.57;100.00
5296;BME280;2670;42.720;23.336;2022-12-07T09:22:19;-22603.84;;;5.57;100.00
5296;BME280;2670;42.720;23.336;2022-12-07T09:24:46;-22603.56;;;5.56;100.00
5296;BME280;2670;42.720;23.336;2022-12-07T09:27:14;-22608.03;;;5.71;100.00
5296;BME280;2670;42.720;23.336;2022-12-07T09:29:42;-22610.56;;;5.80;100.00
5296;BME280;2670;42.720;23.336;2022-12-07T09:32:09;-22609.97;;;5.78;100.00
5296;BME280;2670;42.720;23.336;2022-12-07T09:34:36;-22615.94;;;5.98;100.00
5296;BME280;2670;42.720;23.336;2022-12-07T09:37:03;-22616.38;;;5.99;100.00
5296;BME280;2670;42.720;23.336;2022-12-07T09:39:31;-22616.06;;;5.98;100.00
5296;BME280;2670;42.720;23.336;2022-12-07T09:41:59;-22617.56;;;6.04;100.00
5296;BME280;2670;42.720;23.336;2022-12-07T09:44:31;-22618.00;;;6.05;100.00
5296;BME280;2670;42.720;23.336;2022-12-07T09:46:58;-22619.66;;;6.11;100.00
5296;BME280;2670;42.720;23.336;2022-12-07T09:49:28;-22622.63;;;6.21;100.00
5296;BME280;2670;42.720;23.336;2022-12-07T09:52:01;-22620.84;;;6.15;100.00
5296;BME280;2670;42.720;23.336;2022-12-07T09:54:28;-22622.78;;;6.21;100.00
5296;BME280;2670;42.720;23.336;2022-12-07T09:56:56;-22626.63;;;6.35;100.00
5296;BME280;2670;42.720;23.336;2022-12-07T09:59:23;-22624.84;;;6.29;100.00
5296;BME280;2670;42.720;23.336;2022-12-07T10:01:52;-22626.63;;;6.35;100.00
5296;BME280;2670;42.720;23.336;2022-12-07T10:04:21;-22631.25;;;6.51;100.00
5296;BME280;2670;42.720;23.336;2022-12-07T10:06:48;-22634.53;;;6.62;100.00
5296;BME280;2670;42.720;23.336;2022-12-07T10:09:17;-22635.72;;;6.66;100.00
5296;BME280;2670;42.720;23.336;2022-12-07T10:12:01;-22636.75;;;6.69;100.00
5296;BME280;2670;42.720;23.336;2022-12-07T10:14:30;-22639.72;;;6.80;100.00
5296;BME280;2670;42.720;23.336;2022-12-07T10:17:00;-22641.22;;;6.85;100.00
5296;BME280;2670;42.720;23.336;2022-12-07T10:19:29;-22644.66;;;6.96;100.00
5296;BME280;2670;42.720;23.336;2022-12-07T10:22:10;-22647.03;;;7.05;100.00
5296;BME280;2670;42.720;23.336;2022-12-07T10:24:37;-22647.03;;;7.05;100.00
5296;BME280;2670;42.720;23.336;2022-12-07T10:27:04;-22651.03;;;7.18;100.00
5296;BME280;2670;42.720;23.336;2022-12-07T10:29:34;-22649.69;;;7.14;100.00
5296;BME280;2670;42.720;23.336;2022-12-07T10:32:30;-22650.00;;;7.15;100.00
5296;BME280;2670;42.720;23.336;2022-12-07T10:35:18;-22654.00;;;7.29;100.00
5296;BME280;2670;42.720;23.336;2022-12-07T10:37:45;-22653.88;;;7.28;100.00
5296;BME280;2670;42.720;23.336;2022-12-07T10:40:29;-22658.31;;;7.43;100.00
5296;BME280;2670;42.720;23.336;2022-12-07T10:43:17;-22658.78;;;7.45;100.00
5296;BME280;2670;42.720;23.336;2022-12-07T10:46:08;-22659.66;;;7.48;100.00
5296;BME280;2670;42.720;23.336;2022-12-07T10:48:45;-22661.28;;;7.54;100.00
5296;BME280;2670;42.720;23.336;2022-12-07T10:51:19;-22665.00;;;7.66;100.00
5296;BME280;2670;42.720;23.336;2022-12-07T10:53:58;-22665.16;;;7.67;100.00
5296;BME280;2670;42.720;23.336;2022-12-07T10:56:36;-22666.06;;;7.70;100.00
5296;BME280;2670;42.720;23.336;2022-12-07T10:59:45;-22667.09;;;7.73;100.00
5296;BME280;2670;42.720;23.336;2022-12-07T11:02:25;-22667.97;;;7.77;100.00
5296;BME280;2670;42.720;23.336;2022-12-07T11:05:07;-22667.38;;;7.74;100.00
5296;BME280;2670;42.720;23.336;2022-12-07T11:07:46;-22669.16;;;7.81;100.00
5296;BME280;2670;42.720;23.336;2022-12-07T11:10:22;-22671.09;;;7.87;100.00
5296;BME280;2670;42.720;23.336;2022-12-07T11:13:03;-22671.84;;;7.90;100.00
5296;BME280;2670;42.720;23.336;2022-12-07T11:15:49;-22671.25;;;7.88;100.00
5296;BME280;2670;42.720;23.336;2022-12-07T11:18:25;-22671.41;;;7.88;100.00
5296;BME280;2670;42.720;23.336;2022-12-07T11:21:06;-22673.63;;;7.96;100.00
5296;BME280;2670;42.720;23.336;2022-12-07T11:23:46;-22670.97;;;7.87;100.00
5296;BME280;2670;42.720;23.336;2022-12-07T11:26:24;-22669.91;;;7.83;100.00
5296;BME280;2670;42.720;23.336;2022-12-07T11:29:08;-22668.13;;;7.77;100.00
5296;BME280;2670;42.720;23.336;2022-12-07T11:31:50;-22671.25;;;7.88;100.00
5296;BME280;2670;42.720;23.336;2022-12-07T11:34:27;-22673.91;;;7.97;100.00
5296;BME280;2670;42.720;23.336;2022-12-07T11:37:01;-22676.00;;;8.04;100.00
5296;BME280;2670;42.720;23.336;2022-12-07T11:39:33;-22676.91;;;8.07;100.00
5296;BME280;2670;42.720;23.336;2022-12-07T11:42:03;-22678.09;;;8.11;100.00
5296;BME280;2670;42.720;23.336;2022-12-07T11:44:36;-22679.88;;;8.17;100.00
5296;BME280;2670;42.720;23.336;2022-12-07T11:47:08;-22677.78;;;8.10;100.00
5296;BME280;2670;42.720;23.336;2022-12-07T11:49:42;-22680.16;;;8.18;100.00
5296;BME280;2670;42.720;23.336;2022-12-07T11:52:19;-22680.00;;;8.18;100.00
5296;BME280;2670;42.720;23.336;2022-12-07T11:54:50;-22678.69;;;8.13;100.00
5296;BME280;2670;42.720;23.336;2022-12-07T11:57:23;-22680.59;;;8.20;100.00
5296;BME280;2670;42.720;23.336;2022-12-07T11:59:57;-22681.34;;;8.22;100.00
5296;BME280;2670;42.720;23.336;2022-12-07T12:02:32;-22682.38;;;8.26;100.00
5296;BME280;2670;42.720;23.336;2022-12-07T12:05:07;-22683.56;;;8.30;100.00
5296;BME280;2670;42.720;23.336;2022-12-07T12:07:42;-22686.25;;;8.39;100.00
5296;BME280;2670;42.720;23.336;2022-12-07T12:10:19;-22686.56;;;8.40;100.00
5296;BME280;2670;42.720;23.336;2022-12-07T12:13:27;-22688.94;;;8.48;100.00
5296;BME280;2670;42.720;23.336;2022-12-07T12:16:23;-22692.19;;;8.60;100.00
5296;BME280;2670;42.720;23.336;2022-12-07T12:19:24;-22695.59;;;8.71;100.00
5296;BME280;2670;42.720;23.336;2022-12-07T12:21:56;-22692.94;;;8.62;100.00
5296;BME280;2670;42.720;23.336;2022-12-07T12:24:31;-22693.84;;;8.65;100.00
5296;BME280;2670;42.720;23.336;2022-12-07T12:27:03;-22698.56;;;8.82;100.00
5296;BME280;2670;42.720;23.336;2022-12-07T12:29:34;-22699.47;;;8.85;100.00
5296;BME280;2670;42.720;23.336;2022-12-07T12:32:11;-22698.72;;;8.82;100.00
5296;BME280;2670;42.720;23.336;2022-12-07T12:34:42;-22700.66;;;8.89;100.00
5296;BME280;2670;42.720;23.336;2022-12-07T12:37:40;-22700.22;;;8.87;100.00
5296;BME280;2670;42.720;23.336;2022-12-07T12:40:44;-22700.66;;;8.89;100.00
5296;BME280;2670;42.720;23.336;2022-12-07T12:46:51;-22706.44;;;9.09;100.00
5296;BME280;2670;42.720;23.336;2022-12-07T12:49:39;-22707.63;;;9.13;100.00
5296;BME280;2670;42.720;23.336;2022-12-07T12:56:07;-22708.22;;;9.15;100.00
5296;BME280;2670;42.720;23.336;2022-12-07T12:58:43;-22706.16;;;9.08;100.00
5296;BME280;2670;42.720;23.336;2022-12-07T13:01:44;-22707.34;;;9.12;100.00
5296;BME280;2670;42.720;23.336;2022-12-07T13:04:52;-22705.69;;;9.06;100.00
5296;BME280;2670;42.720;23.336;2022-12-07T13:07:52;-22707.78;;;9.13;100.00
5296;BME280;2670;42.720;23.336;2022-12-07T13:10:24;-22708.06;;;9.14;100.00
5296;BME280;2670;42.720;23.336;2022-12-07T13:12:59;-22704.38;;;9.02;100.00
5296;BME280;2670;42.720;23.336;2022-12-07T13:15:34;-22703.03;;;8.97;100.00
5296;BME280;2670;42.720;23.336;2022-12-07T13:18:04;-22701.09;;;8.90;100.00
5296;BME280;2670;42.720;23.336;2022-12-07T13:20:49;-22700.22;;;8.87;100.00
5296;BME280;2670;42.720;23.336;2022-12-07T13:23:21;-22707.78;;;9.13;100.00
5296;BME280;2670;42.720;23.336;2022-12-07T13:26:06;-22706.75;;;9.10;100.00
5296;BME280;2670;42.720;23.336;2022-12-07T13:28:41;-22708.22;;;9.15;100.00